createdAt,value
2022-09-28T00:01:18.405Z,36.80
2022-09-28T00:03:49.013Z,33.47
2022-09-28T00:06:20.098Z,30.03
2022-09-28T00:08:51.957Z,32.50
2022-09-28T00:11:22.865Z,30.50
2022-09-28T00:13:53.433Z,32.27
2022-09-28T00:16:25.555Z,33.30
2022-09-28T00:18:54.086Z,37.47
2022-09-28T00:21:23.912Z,35.77
2022-09-28T00:24:14.530Z,37.13
2022-09-28T00:26:46.379Z,33.83
2022-09-28T00:29:22.275Z,37.00
2022-09-28T00:31:56.934Z,41.90
2022-09-28T00:34:25.020Z,40.37
2022-09-28T00:36:52.974Z,38.70
2022-09-28T00:39:22.500Z,39.93
2022-09-28T00:41:50.883Z,36.93
2022-09-28T00:44:39.300Z,37.70
2022-09-28T00:47:24.254Z,34.90
2022-09-28T00:49:59.806Z,32.00
2022-09-28T00:52:33.526Z,33.38
2022-09-28T00:55:07.324Z,34.57
2022-09-28T00:57:38.519Z,33.90
2022-09-28T01:00:10.607Z,36.00
2022-09-28T01:02:38.415Z,35.27
2022-09-28T01:05:10.274Z,46.90
2022-09-28T01:07:40.124Z,50.70
2022-09-28T01:10:09.963Z,69.17
2022-09-28T01:12:38.981Z,68.57
2022-09-28T01:15:08.324Z,63.47
2022-09-28T01:18:00.071Z,51.40
2022-09-28T01:21:01.339Z,51.13
2022-09-28T01:23:52.302Z,38.60
2022-09-28T01:26:45.950Z,29.23
2022-09-28T01:29:29.475Z,26.80
2022-09-28T01:32:15.111Z,24.80
2022-09-28T01:34:54.730Z,36.00
2022-09-28T01:37:36.228Z,37.03
2022-09-28T01:40:10.478Z,41.23
2022-09-28T01:42:44.095Z,34.10
2022-09-28T01:45:22.630Z,29.63
2022-09-28T01:47:59.965Z,27.43
2022-09-28T01:50:34.105Z,25.33
2022-09-28T01:53:12.413Z,23.97
2022-09-28T01:55:46.173Z,21.90
2022-09-28T01:58:24.481Z,22.43
2022-09-28T02:01:01.463Z,21.97
2022-09-28T02:03:39.773Z,24.17
2022-09-28T02:06:16.232Z,19.80
2022-09-28T02:08:50.629Z,19.60
2022-09-28T02:11:22.244Z,21.65
2022-09-28T02:14:01.012Z,22.73
2022-09-28T02:16:38.049Z,21.93
2022-09-28T02:19:09.824Z,22.27
2022-09-28T02:21:49.668Z,21.53
2022-09-28T02:24:30.983Z,19.57
2022-09-28T02:27:05.625Z,19.50
2022-09-28T02:29:36.272Z,19.40
2022-09-28T02:32:04.129Z,19.47
2022-09-28T02:34:32.825Z,20.00
2022-09-28T02:37:01.966Z,19.70
2022-09-28T02:39:31.592Z,19.13
2022-09-28T02:42:17.174Z,19.70
2022-09-28T02:45:08.101Z,18.80
2022-09-28T02:48:00.657Z,19.27
2022-09-28T02:50:42.673Z,20.07
2022-09-28T02:53:35.229Z,20.57
2022-09-28T02:56:26.673Z,19.43
2022-09-28T02:59:07.943Z,20.77
2022-09-28T03:01:50.200Z,20.77
2022-09-28T03:04:36.272Z,19.80
2022-09-28T03:07:16.345Z,21.30
2022-09-28T03:09:58.071Z,18.70
2022-09-28T03:12:29.851Z,20.77
2022-09-28T03:15:12.341Z,22.47
2022-09-28T03:17:42.556Z,20.67
2022-09-28T03:20:11.678Z,21.63
2022-09-28T03:22:39.581Z,19.10
2022-09-28T03:25:09.794Z,19.23
2022-09-28T03:27:39.815Z,22.27
2022-09-28T03:30:10.620Z,21.63
2022-09-28T03:32:40.165Z,24.67
2022-09-28T03:35:12.094Z,21.87
2022-09-28T03:37:42.643Z,23.23
2022-09-28T03:40:11.123Z,23.50
2022-09-28T03:42:38.963Z,24.63
2022-09-28T03:45:07.878Z,23.70
2022-09-28T03:47:36.044Z,23.63
2022-09-28T03:50:06.890Z,22.03
2022-09-28T03:52:36.277Z,23.00
2022-09-28T03:55:04.746Z,23.90
2022-09-28T03:57:33.785Z,22.57
2022-09-28T04:00:02.108Z,23.23
2022-09-28T04:02:32.292Z,23.43
2022-09-28T04:05:00.274Z,24.33
2022-09-28T04:07:31.063Z,24.97
2022-09-28T04:10:01.108Z,25.33
2022-09-28T04:12:29.327Z,25.47
2022-09-28T04:14:59.492Z,24.10
2022-09-28T04:17:30.190Z,25.30
2022-09-28T04:19:58.280Z,25.20
2022-09-28T04:22:41.266Z,24.87
2022-09-28T04:25:11.358Z,24.30
2022-09-28T04:27:58.281Z,24.23
2022-09-28T04:30:26.420Z,22.97
2022-09-28T04:32:54.201Z,24.67
2022-09-28T04:35:22.361Z,24.73
2022-09-28T04:37:50.466Z,23.83
2022-09-28T04:40:19.635Z,24.37
2022-09-28T04:42:54.164Z,23.63
2022-09-28T04:45:23.439Z,23.83
2022-09-28T04:47:51.933Z,20.67
2022-09-28T04:50:29.516Z,23.27
2022-09-28T04:53:15.817Z,21.83
2022-09-28T04:55:45.188Z,22.80
2022-09-28T04:58:13.136Z,22.87
2022-09-28T05:00:40.931Z,22.17
2022-09-28T05:03:21.019Z,22.47
2022-09-28T05:06:16.542Z,21.95
2022-09-28T05:08:47.181Z,23.47
2022-09-28T05:11:18.268Z,22.90
2022-09-28T05:13:46.201Z,23.87
2022-09-28T05:16:17.467Z,23.63
2022-09-28T05:19:08.086Z,21.97
2022-09-28T05:21:35.920Z,23.40
2022-09-28T05:24:07.377Z,23.83
2022-09-28T05:26:38.528Z,24.43
2022-09-28T05:29:08.837Z,23.83
2022-09-28T05:31:51.983Z,21.67
2022-09-28T05:34:35.173Z,24.07
2022-09-28T05:37:03.148Z,23.17
2022-09-28T05:39:32.131Z,22.70
2022-09-28T05:42:01.492Z,23.57
2022-09-28T05:44:31.908Z,22.90
2022-09-28T05:46:59.757Z,24.67
2022-09-28T05:49:29.167Z,23.90
2022-09-28T05:51:57.367Z,24.57
2022-09-28T05:54:26.029Z,25.00
2022-09-28T05:56:54.065Z,24.00
2022-09-28T05:59:23.198Z,23.57
2022-09-28T06:01:50.948Z,23.67
2022-09-28T06:04:18.843Z,23.70
2022-09-28T06:06:49.056Z,24.63
2022-09-28T06:09:17.877Z,24.43
2022-09-28T06:12:24.113Z,23.65
2022-09-28T06:14:58.546Z,22.80
2022-09-28T06:17:26.379Z,23.57
2022-09-28T06:20:14.652Z,24.27
2022-09-28T06:22:57.244Z,23.33
2022-09-28T06:25:27.502Z,24.63
2022-09-28T06:27:57.234Z,25.00
2022-09-28T06:30:29.619Z,24.50
2022-09-28T06:33:01.114Z,24.43
2022-09-28T06:35:31.569Z,24.17
2022-09-28T06:38:00.124Z,25.90
2022-09-28T06:40:29.155Z,25.57
2022-09-28T06:42:59.295Z,24.87
2022-09-28T06:45:53.833Z,22.40
2022-09-28T06:48:31.643Z,23.50
2022-09-28T06:51:00.615Z,23.03
2022-09-28T06:53:31.647Z,23.03
2022-09-28T06:56:02.961Z,22.50
2022-09-28T06:58:32.222Z,23.60
2022-09-28T07:01:02.450Z,22.53
2022-09-28T07:03:37.159Z,22.77
2022-09-28T07:06:47.649Z,21.88
2022-09-28T07:09:37.299Z,22.77
2022-09-28T07:12:13.071Z,21.50
2022-09-28T07:14:50.193Z,23.07
2022-09-28T07:17:20.460Z,19.33
2022-09-28T07:19:52.541Z,21.17
2022-09-28T07:22:34.348Z,19.83
2022-09-28T07:25:09.842Z,20.70
2022-09-28T07:27:43.919Z,21.10
2022-09-28T07:30:38.535Z,19.03
2022-09-28T07:33:16.126Z,18.07
2022-09-28T07:35:57.028Z,13.50
2022-09-28T07:38:29.359Z,18.40
2022-09-28T07:41:14.156Z,15.20
2022-09-28T07:43:50.118Z,14.03
2022-09-28T07:46:18.093Z,15.27
2022-09-28T07:48:58.130Z,16.10
2022-09-28T07:51:36.559Z,13.27
2022-09-28T07:54:26.287Z,14.27
2022-09-28T07:57:22.412Z,13.03
2022-09-28T08:00:17.865Z,13.10
2022-09-28T08:02:48.973Z,13.97
2022-09-28T08:05:25.181Z,13.88
2022-09-28T08:07:57.634Z,17.27
2022-09-28T08:10:26.608Z,15.30
2022-09-28T08:13:27.047Z,13.18
2022-09-28T08:16:01.917Z,15.07
2022-09-28T08:18:45.033Z,15.20
2022-09-28T08:21:33.014Z,17.63
2022-09-28T08:24:01.518Z,16.47
2022-09-28T08:26:29.324Z,16.23
2022-09-28T08:28:57.364Z,15.37
2022-09-28T08:31:43.716Z,14.57
2022-09-28T08:34:22.548Z,16.83
2022-09-28T08:37:12.441Z,15.40
2022-09-28T08:39:58.883Z,14.17
2022-09-28T08:42:53.166Z,15.97
2022-09-28T08:45:39.678Z,16.43
2022-09-28T08:48:39.878Z,15.27
2022-09-28T08:51:42.181Z,14.30
2022-09-28T08:54:37.553Z,12.90
2022-09-28T08:57:19.241Z,11.73
2022-09-28T08:59:52.597Z,17.03
2022-09-28T09:02:36.158Z,13.50
2022-09-28T09:08:31.811Z,12.67
2022-09-28T09:11:22.972Z,12.40
2022-09-28T09:14:16.529Z,14.97
2022-09-28T09:17:00.598Z,14.73
2022-09-28T09:19:53.299Z,7.50
2022-09-28T09:22:40.823Z,11.20
2022-09-28T09:25:20.510Z,11.97
2022-09-28T09:28:33.596Z,10.53
2022-09-28T09:31:22.570Z,11.17
2022-09-28T09:34:16.593Z,10.47
2022-09-28T09:37:18.338Z,9.20
2022-09-28T09:40:32.191Z,8.13
2022-09-28T09:44:07.201Z,7.00
2022-09-28T09:47:07.938Z,7.63
2022-09-28T09:49:51.575Z,6.55
2022-09-28T09:52:26.902Z,6.68
2022-09-28T09:55:03.350Z,6.03
2022-09-28T09:57:44.627Z,5.90
2022-09-28T10:00:29.637Z,6.15
2022-09-28T10:03:23.577Z,6.00
2022-09-28T10:06:00.300Z,5.90
2022-09-28T10:08:32.488Z,5.22
2022-09-28T10:11:09.334Z,5.28
2022-09-28T10:13:41.331Z,4.90
2022-09-28T10:16:33.154Z,5.18
2022-09-28T10:19:02.745Z,5.80
2022-09-28T10:22:06.336Z,5.38
2022-09-28T10:24:41.978Z,4.80
2022-09-28T10:27:16.755Z,4.82
2022-09-28T10:29:52.351Z,4.35
2022-09-28T10:32:25.537Z,5.45
2022-09-28T10:35:16.880Z,4.80
2022-09-28T10:37:54.164Z,4.15
2022-09-28T10:40:45.653Z,4.03
2022-09-28T10:43:23.852Z,4.40
2022-09-28T10:46:07.551Z,4.32
2022-09-28T10:48:51.646Z,2.70
2022-09-28T10:51:40.153Z,4.38
2022-09-28T10:54:17.755Z,4.70
2022-09-28T10:56:49.251Z,4.22
2022-09-28T10:59:40.828Z,4.18
2022-09-28T11:02:36.464Z,4.45
2022-09-28T11:05:29.888Z,4.32
2022-09-28T11:08:05.536Z,4.28
2022-09-28T11:10:40.301Z,4.50
2022-09-28T11:13:14.586Z,4.40
2022-09-28T11:15:47.530Z,4.05
2022-09-28T11:18:31.367Z,4.60
2022-09-28T11:21:17.507Z,4.10
2022-09-28T11:24:07.221Z,3.95
2022-09-28T11:26:42.839Z,4.13
2022-09-28T11:29:23.403Z,3.70
2022-09-28T11:32:15.669Z,3.72
2022-09-28T11:35:04.571Z,4.78
2022-09-28T11:37:58.772Z,4.57
2022-09-28T11:41:06.424Z,5.63
2022-09-28T11:44:01.788Z,5.78
2022-09-28T11:46:45.952Z,5.13
2022-09-28T11:49:30.160Z,5.30
2022-09-28T11:52:08.173Z,5.13
2022-09-28T11:54:47.329Z,5.53
2022-09-28T11:57:23.035Z,4.80
2022-09-28T12:00:00.408Z,7.18
2022-09-28T12:02:40.618Z,5.63
2022-09-28T12:05:22.753Z,6.68
2022-09-28T12:07:59.072Z,6.20
2022-09-28T12:10:58.019Z,4.75
2022-09-28T12:13:51.422Z,6.95
2022-09-28T12:16:53.714Z,6.03
2022-09-28T12:19:22.519Z,5.53
2022-09-28T12:21:55.382Z,7.70
2022-09-28T12:24:29.245Z,4.65
2022-09-28T12:27:06.018Z,3.53
2022-09-28T12:29:43.962Z,3.97
2022-09-28T12:32:26.524Z,4.90
2022-09-28T12:34:55.460Z,3.75
2022-09-28T12:38:01.130Z,4.03
2022-09-28T12:40:41.492Z,3.47
2022-09-28T12:43:54.722Z,3.60
2022-09-28T12:46:49.080Z,4.20
2022-09-28T12:51:02.365Z,4.03
2022-09-28T12:53:07.292Z,4.28
2022-09-28T12:55:56.405Z,2.55
2022-09-28T12:59:00.882Z,2.30
2022-09-28T13:02:16.102Z,2.50
2022-09-28T13:05:12.139Z,3.58
2022-09-28T13:07:50.592Z,3.20
2022-09-28T13:10:33.115Z,2.80
2022-09-28T13:13:27.373Z,3.00
2022-09-28T13:16:11.815Z,3.22
2022-09-28T13:18:49.094Z,2.67
2022-09-28T13:21:34.618Z,3.10
2022-09-28T13:24:20.969Z,2.20
2022-09-28T13:27:04.675Z,2.40
2022-09-28T13:29:34.840Z,32.35
2022-09-28T13:32:08.521Z,9.35
2022-09-28T13:34:39.508Z,2.20
2022-09-28T13:37:25.778Z,2.30
2022-09-28T13:39:58.638Z,2.15
2022-09-28T13:43:12.050Z,2.10
2022-09-28T13:46:08.616Z,2.20
2022-09-28T13:48:53.125Z,2.13
2022-09-28T13:51:38.252Z,2.10
2022-09-28T13:54:37.139Z,1.90
2022-09-28T13:57:21.404Z,1.88
2022-09-28T14:00:02.792Z,1.70
2022-09-28T14:02:46.640Z,1.65
2022-09-28T14:05:47.256Z,1.80
2022-09-28T14:08:34.834Z,2.10
2022-09-28T14:11:53.536Z,1.55
2022-09-28T14:14:45.762Z,1.23
2022-09-28T14:18:02.530Z,1.40
2022-09-28T14:20:31.477Z,1.70
2022-09-28T14:23:50.541Z,1.70
2022-09-28T14:27:27.343Z,1.70
2022-09-28T14:30:16.278Z,1.53
2022-09-28T14:32:54.085Z,1.90
2022-09-28T14:35:32.728Z,1.88
2022-09-28T14:38:25.242Z,1.83
2022-09-28T14:41:11.076Z,1.50
2022-09-28T14:44:03.720Z,1.52
2022-09-28T14:46:44.223Z,1.45
2022-09-28T14:49:47.904Z,1.55
2022-09-28T14:52:39.146Z,1.55
2022-09-28T14:55:19.524Z,1.50
2022-09-28T14:57:56.681Z,1.60
2022-09-28T15:00:30.319Z,1.30
2022-09-28T15:03:05.946Z,1.30
2022-09-28T15:05:44.493Z,1.60
2022-09-28T15:08:12.704Z,1.30
2022-09-28T15:10:46.872Z,1.45
2022-09-28T15:13:24.075Z,1.10
2022-09-28T15:15:59.416Z,1.20
2022-09-28T15:19:23.097Z,1.30
2022-09-28T15:21:52.800Z,1.17
2022-09-28T15:24:27.707Z,1.10
2022-09-28T15:26:56.714Z,1.17
2022-09-28T15:29:30.945Z,1.10
2022-09-28T15:31:59.271Z,1.15
2022-09-28T15:34:48.925Z,1.30
2022-09-28T15:37:21.971Z,1.30
2022-09-28T15:39:52.556Z,1.27
2022-09-28T15:42:22.658Z,1.50
2022-09-28T15:45:26.588Z,1.70
2022-09-28T15:48:18.254Z,1.90
2022-09-28T15:51:03.018Z,1.80
2022-09-28T15:53:31.888Z,1.77
2022-09-28T15:56:10.779Z,2.13
2022-09-28T15:58:40.056Z,1.90
2022-09-28T16:01:36.579Z,1.90
2022-09-28T16:04:38.575Z,2.00
2022-09-28T16:07:28.466Z,1.90
2022-09-28T16:10:04.782Z,1.90
2022-09-28T16:12:45.942Z,2.10
2022-09-28T16:15:21.133Z,2.13
2022-09-28T16:17:54.974Z,2.47
2022-09-28T16:20:29.421Z,2.05
2022-09-28T16:23:05.809Z,1.95
2022-09-28T16:25:39.162Z,2.10
2022-09-28T16:28:08.835Z,2.97
2022-09-28T16:30:36.815Z,3.28
2022-09-28T16:33:27.580Z,2.70
2022-09-28T16:35:55.741Z,2.30
2022-09-28T16:38:24.212Z,2.50
2022-09-28T16:40:54.614Z,2.50
2022-09-28T16:43:27.668Z,2.90
2022-09-28T16:45:58.335Z,2.47
2022-09-28T16:48:32.071Z,2.65
2022-09-28T16:50:59.986Z,4.43
2022-09-28T16:53:46.645Z,6.53
2022-09-28T16:56:15.167Z,10.00
2022-09-28T16:58:44.097Z,9.40
2022-09-28T17:01:15.260Z,7.15
2022-09-28T17:03:47.626Z,8.95
2022-09-28T17:06:18.489Z,16.42
2022-09-28T17:08:46.757Z,12.93
2022-09-28T17:11:23.373Z,6.80
2022-09-28T17:13:58.827Z,5.93
2022-09-28T17:19:23.250Z,4.40
2022-09-28T17:21:52.565Z,3.40
2022-09-28T17:24:21.412Z,3.45
2022-09-28T17:26:51.956Z,3.00
2022-09-28T17:29:20.390Z,2.60
2022-09-28T17:31:48.639Z,2.90
2022-09-28T17:34:17.598Z,2.77
2022-09-28T17:36:47.811Z,3.05
2022-09-28T17:39:18.933Z,3.60
2022-09-28T17:41:47.547Z,9.65
2022-09-28T17:44:16.203Z,7.80
2022-09-28T17:46:48.509Z,5.28
2022-09-28T17:49:17.075Z,3.72
2022-09-28T17:51:50.244Z,1.70
2022-09-28T17:54:20.781Z,1.38
2022-09-28T17:56:48.772Z,1.70
2022-09-28T17:59:19.070Z,1.20
2022-09-28T18:01:48.691Z,1.27
2022-09-28T18:04:39.804Z,1.10
2022-09-28T18:07:08.228Z,1.93
2022-09-28T18:09:37.305Z,4.80
2022-09-28T18:12:06.409Z,5.60
2022-09-28T18:14:36.012Z,4.80
2022-09-28T18:17:07.759Z,4.43
2022-09-28T18:19:37.075Z,4.07
2022-09-28T18:22:06.215Z,3.97
2022-09-28T18:24:34.045Z,3.40
2022-09-28T18:27:02.299Z,3.00
2022-09-28T18:29:33.286Z,3.00
2022-09-28T18:32:03.596Z,2.97
2022-09-28T18:34:36.230Z,2.87
2022-09-28T18:37:07.306Z,3.00
2022-09-28T18:39:38.716Z,3.37
2022-09-28T18:42:09.544Z,3.10
2022-09-28T18:44:39.312Z,3.07
2022-09-28T18:47:09.170Z,3.80
2022-09-28T18:49:39.780Z,4.50
2022-09-28T18:52:11.393Z,6.80
2022-09-28T18:54:43.265Z,7.07
2022-09-28T18:57:11.777Z,8.00
2022-09-28T18:59:40.011Z,7.70
2022-09-28T19:02:10.697Z,6.80
2022-09-28T19:04:40.652Z,8.10
2022-09-28T19:07:10.577Z,8.20
2022-09-28T19:09:44.093Z,6.80
2022-09-28T19:12:13.042Z,6.37
2022-09-28T19:14:43.290Z,5.87
2022-09-28T19:17:12.370Z,6.40
2022-09-28T19:19:45.887Z,5.83
2022-09-28T19:22:16.522Z,5.70
2022-09-28T19:24:45.051Z,6.13
2022-09-28T19:27:16.507Z,5.63
2022-09-28T19:29:45.506Z,5.63
2022-09-28T19:32:19.457Z,5.50
2022-09-28T19:34:51.680Z,6.00
2022-09-28T19:37:21.710Z,6.37
2022-09-28T19:39:51.121Z,7.53
2022-09-28T19:42:19.029Z,7.67
2022-09-28T19:44:47.354Z,8.10
2022-09-28T19:47:21.442Z,7.80
2022-09-28T19:49:50.342Z,8.10
2022-09-28T19:52:18.162Z,9.00
2022-09-28T19:55:00.181Z,12.57
2022-09-28T19:57:31.630Z,10.53
2022-09-28T20:00:03.205Z,9.70
2022-09-28T20:02:34.706Z,9.60
2022-09-28T20:05:03.006Z,8.63
2022-09-28T20:07:32.884Z,9.20
2022-09-28T20:10:02.375Z,9.20
2022-09-28T20:12:30.131Z,9.63
2022-09-28T20:14:57.947Z,9.67
2022-09-28T20:17:25.737Z,9.67
2022-09-28T20:19:53.619Z,9.57
2022-09-28T20:22:21.623Z,10.50
2022-09-28T20:24:49.996Z,10.73
2022-09-28T20:27:22.131Z,10.97
2022-09-28T20:29:56.304Z,11.70
2022-09-28T20:32:24.072Z,11.13
2022-09-28T20:34:51.977Z,10.73
2022-09-28T20:37:19.753Z,9.97
2022-09-28T20:39:48.054Z,10.40
2022-09-28T20:42:16.627Z,10.90
2022-09-28T20:44:46.069Z,10.03
2022-09-28T20:47:13.923Z,9.87
2022-09-28T20:49:41.861Z,9.73
2022-09-28T20:52:09.994Z,10.97
2022-09-28T20:54:39.253Z,12.17
2022-09-28T20:57:17.298Z,11.47
2022-09-28T20:59:53.593Z,9.53
2022-09-28T21:02:23.134Z,9.43
2022-09-28T21:04:51.170Z,8.40
2022-09-28T21:07:19.124Z,7.97
2022-09-28T21:09:48.857Z,8.53
2022-09-28T21:12:18.018Z,9.03
2022-09-28T21:14:47.499Z,9.23
2022-09-28T21:17:15.285Z,9.07
2022-09-28T21:19:43.737Z,9.33
2022-09-28T21:22:11.983Z,9.40
2022-09-28T21:24:40.020Z,10.23
2022-09-28T21:27:07.802Z,10.60
2022-09-28T21:29:36.617Z,10.30
2022-09-28T21:32:08.225Z,11.17
2022-09-28T21:34:36.427Z,10.67
2022-09-28T21:37:04.198Z,11.23
2022-09-28T21:39:31.983Z,10.77
2022-09-28T21:41:59.725Z,11.30
2022-09-28T21:44:27.493Z,11.10
2022-09-28T21:46:55.373Z,10.97
2022-09-28T21:49:24.761Z,11.63
2022-09-28T21:51:52.514Z,12.00
2022-09-28T21:54:21.317Z,12.10
2022-09-28T21:56:49.367Z,12.40
2022-09-28T21:59:17.384Z,15.07
2022-09-28T22:01:45.364Z,14.10
2022-09-28T22:04:15.798Z,13.90
2022-09-28T22:06:45.306Z,12.77
2022-09-28T22:09:13.420Z,19.53
2022-09-28T22:11:41.318Z,30.07
2022-09-28T22:14:10.758Z,25.80
2022-09-28T22:16:39.373Z,25.83
2022-09-28T22:19:07.219Z,20.90
2022-09-28T22:21:35.431Z,18.13
2022-09-28T22:24:07.249Z,16.47
2022-09-28T22:26:37.111Z,15.00
2022-09-28T22:29:07.308Z,14.03
2022-09-28T22:31:38.025Z,13.47
2022-09-28T22:34:09.726Z,14.30
2022-09-28T22:36:37.531Z,13.83
2022-09-28T22:39:06.769Z,13.50
2022-09-28T22:41:35.465Z,14.83
2022-09-28T22:44:03.382Z,14.13
2022-09-28T22:46:32.420Z,15.37
2022-09-28T22:49:00.783Z,15.83
2022-09-28T22:51:30.841Z,16.37
2022-09-28T22:53:58.767Z,16.27
2022-09-28T22:56:28.968Z,17.97
2022-09-28T22:58:57.463Z,17.63
2022-09-28T23:01:28.419Z,20.30
2022-09-28T23:03:58.833Z,21.63
2022-09-28T23:06:30.760Z,21.50
2022-09-28T23:08:59.409Z,21.83
2022-09-28T23:11:29.532Z,23.20
2022-09-28T23:13:59.253Z,24.63
2022-09-28T23:16:27.927Z,25.67
2022-09-28T23:18:56.414Z,27.20
2022-09-28T23:21:27.654Z,32.07
2022-09-28T23:23:58.310Z,31.00
2022-09-28T23:26:31.033Z,31.50
2022-09-28T23:29:00.371Z,32.33
2022-09-28T23:31:31.431Z,31.10
2022-09-28T23:34:02.419Z,28.47
2022-09-28T23:36:31.129Z,28.13
2022-09-28T23:38:59.473Z,28.90
2022-09-28T23:41:30.771Z,27.53
2022-09-28T23:44:00.654Z,29.43
2022-09-28T23:46:28.850Z,29.53
2022-09-28T23:48:56.671Z,28.53
2022-09-28T23:51:24.823Z,32.50
2022-09-28T23:53:52.962Z,30.17
2022-09-28T23:56:22.273Z,33.23
2022-09-28T23:58:51.411Z,29.90
